sensor_id;sensor_type;location;lat;lon;timestamp;pressure;altitude;pressure_sealevel;temperature;humidity
16978;BME280;8605;52.548;4.918;2024-03-08T00:00:14;102059.03;;;3.36;92.89
16978;BME280;8605;52.548;4.918;2024-03-08T00:02:44;102047.53;;;3.35;92.71
16978;BME280;8605;52.548;4.918;2024-03-08T00:05:13;102045.81;;;3.34;93.03
16978;BME280;8605;52.548;4.918;2024-03-08T00:07:42;102043.94;;;3.36;92.67
16978;BME280;8605;52.548;4.918;2024-03-08T00:10:12;102042.38;;;3.32;92.71
16978;BME280;8605;52.548;4.918;2024-03-08T00:12:43;102039.78;;;3.31;91.87
16978;BME280;8605;52.548;4.918;2024-03-08T00:15:15;102035.31;;;3.31;92.66
16978;BME280;8605;52.548;4.918;2024-03-08T00:17:45;102033.78;;;3.27;92.23
16978;BME280;8605;52.548;4.918;2024-03-08T00:20:14;102035.50;;;3.28;92.09
16978;BME280;8605;52.548;4.918;2024-03-08T00:22:44;102033.78;;;3.27;91.97
16978;BME280;8605;52.548;4.918;2024-03-08T00:25:12;102030.31;;;3.25;91.92
16978;BME280;8605;52.548;4.918;2024-03-08T00:27:41;102032.84;;;3.28;92.58
16978;BME280;8605;52.548;4.918;2024-03-08T00:30:09;102022.53;;;3.22;92.57
16978;BME280;8605;52.548;4.918;2024-03-08T00:32:41;102024.16;;;3.25;92.43
16978;BME280;8605;52.548;4.918;2024-03-08T00:35:09;102019.09;;;3.20;92.41
16978;BME280;8605;52.548;4.918;2024-03-08T00:37:39;102017.28;;;3.20;91.61
16978;BME280;8605;52.548;4.918;2024-03-08T00:40:07;102011.19;;;3.18;91.88
16978;BME280;8605;52.548;4.918;2024-03-08T00:42:36;102010.16;;;3.21;91.24
16978;BME280;8605;52.548;4.918;2024-03-08T00:45:05;102008.69;;;3.15;91.31
16978;BME280;8605;52.548;4.918;2024-03-08T00:47:33;102012.28;;;3.14;91.25
16978;BME280;8605;52.548;4.918;2024-03-08T00:50:03;102008.69;;;3.15;91.81
16978;BME280;8605;52.548;4.918;2024-03-08T00:52:31;102009.72;;;3.13;91.13
16978;BME280;8605;52.548;4.918;2024-03-08T00:55:01;102008.84;;;3.12;91.72
16978;BME280;8605;52.548;4.918;2024-03-08T00:57:29;102006.38;;;3.09;91.46
16978;BME280;8605;52.548;4.918;2024-03-08T00:59:57;102000.25;;;3.07;91.84
16978;BME280;8605;52.548;4.918;2024-03-08T01:02:25;101992.38;;;3.06;91.94
16978;BME280;8605;52.548;4.918;2024-03-08T01:04:53;101976.59;;;3.03;91.50
16978;BME280;8605;52.548;4.918;2024-03-08T01:07:22;101989.22;;;3.15;90.44
16978;BME280;8605;52.548;4.918;2024-03-08T01:09:50;101988.50;;;3.11;90.16
16978;BME280;8605;52.548;4.918;2024-03-08T01:12:17;101974.94;;;3.00;90.15
16978;BME280;8605;52.548;4.918;2024-03-08T01:14:46;101974.47;;;3.09;90.23
16978;BME280;8605;52.548;4.918;2024-03-08T01:17:14;101969.16;;;3.09;90.30
16978;BME280;8605;52.548;4.918;2024-03-08T01:19:42;101973.53;;;3.10;89.62
16978;BME280;8605;52.548;4.918;2024-03-08T01:22:11;101965.38;;;3.13;89.57
16978;BME280;8605;52.548;4.918;2024-03-08T01:24:40;101959.44;;;3.08;88.96
16978;BME280;8605;52.548;4.918;2024-03-08T01:27:08;101957.72;;;3.07;88.47
16978;BME280;8605;52.548;4.918;2024-03-08T01:29:35;101951.41;;;3.10;88.39
16978;BME280;8605;52.548;4.918;2024-03-08T01:32:04;101950.75;;;3.05;89.11
16978;BME280;8605;52.548;4.918;2024-03-08T01:34:32;101946.63;;;2.99;89.30
16978;BME280;8605;52.548;4.918;2024-03-08T01:37:00;101939.59;;;2.98;89.10
16978;BME280;8605;52.548;4.918;2024-03-08T01:39:28;101933.44;;;2.98;89.28
16978;BME280;8605;52.548;4.918;2024-03-08T01:41:57;101928.28;;;2.95;89.07
16978;BME280;8605;52.548;4.918;2024-03-08T01:44:25;101922.97;;;2.95;89.69
16978;BME280;8605;52.548;4.918;2024-03-08T01:46:53;101923.03;;;2.93;88.53
16978;BME280;8605;52.548;4.918;2024-03-08T01:49:21;101920.50;;;2.92;88.61
16978;BME280;8605;52.548;4.918;2024-03-08T01:51:50;101923.22;;;2.90;89.38
16978;BME280;8605;52.548;4.918;2024-03-08T01:54:19;101920.63;;;2.89;89.24
16978;BME280;8605;52.548;4.918;2024-03-08T01:56:47;101915.47;;;2.86;89.40
16978;BME280;8605;52.548;4.918;2024-03-08T01:59:17;101921.84;;;2.83;89.51
16978;BME280;8605;52.548;4.918;2024-03-08T02:01:45;101914.88;;;2.80;89.77
16978;BME280;8605;52.548;4.918;2024-03-08T02:04:14;101908.69;;;2.80;89.60
16978;BME280;8605;52.548;4.918;2024-03-08T02:06:43;101900.81;;;2.78;89.55
16978;BME280;8605;52.548;4.918;2024-03-08T02:09:11;101904.50;;;2.76;89.34
16978;BME280;8605;52.548;4.918;2024-03-08T02:11:40;101898.38;;;2.74;89.70
16978;BME280;8605;52.548;4.918;2024-03-08T02:14:08;101894.88;;;2.73;89.65
16978;BME280;8605;52.548;4.918;2024-03-08T02:16:39;101893.94;;;2.74;89.49
16978;BME280;8605;52.548;4.918;2024-03-08T02:19:07;101890.50;;;2.72;90.00
16978;BME280;8605;52.548;4.918;2024-03-08T02:21:37;101892.47;;;2.69;90.02
16978;BME280;8605;52.548;4.918;2024-03-08T02:24:06;101893.25;;;2.71;89.88
16978;BME280;8605;52.548;4.918;2024-03-08T02:26:33;101885.44;;;2.68;90.04
16978;BME280;8605;52.548;4.918;2024-03-08T02:29:01;101884.56;;;2.67;89.89
16978;BME280;8605;52.548;4.918;2024-03-08T02:31:29;101889.19;;;2.64;89.80
16978;BME280;8605;52.548;4.918;2024-03-08T02:33:57;101876.66;;;2.66;89.62
16978;BME280;8605;52.548;4.918;2024-03-08T02:36:26;101883.88;;;2.64;90.11
16978;BME280;8605;52.548;4.918;2024-03-08T02:38:55;101875.22;;;2.60;90.30
16978;BME280;8605;52.548;4.918;2024-03-08T02:41:23;101876.00;;;2.62;89.96
16978;BME280;8605;52.548;4.918;2024-03-08T02:43:50;101867.09;;;2.63;90.07
16978;BME280;8605;52.548;4.918;2024-03-08T02:46:18;101855.66;;;2.61;89.75
16978;BME280;8605;52.548;4.918;2024-03-08T02:48:47;101853.88;;;2.62;89.89
16978;BME280;8605;52.548;4.918;2024-03-08T02:51:15;101854.75;;;2.62;89.55
16978;BME280;8605;52.548;4.918;2024-03-08T02:53:43;101858.34;;;2.61;89.40
16978;BME280;8605;52.548;4.918;2024-03-08T02:56:12;101855.06;;;2.56;89.38
16978;BME280;8605;52.548;4.918;2024-03-08T02:58:43;101852.47;;;2.55;89.75
16978;BME280;8605;52.548;4.918;2024-03-08T03:01:15;101845.56;;;2.52;89.50
16978;BME280;8605;52.548;4.918;2024-03-08T03:03:43;101844.78;;;2.50;89.42
16978;BME280;8605;52.548;4.918;2024-03-08T03:06:10;101841.19;;;2.51;90.10
16978;BME280;8605;52.548;4.918;2024-03-08T03:08:38;101838.53;;;2.51;89.70
16978;BME280;8605;52.548;4.918;2024-03-08T03:11:10;101839.59;;;2.47;89.40
16978;BME280;8605;52.548;4.918;2024-03-08T03:13:41;101830.78;;;2.47;89.76
16978;BME280;8605;52.548;4.918;2024-03-08T03:16:17;101826.31;;;2.47;89.44
16978;BME280;8605;52.548;4.918;2024-03-08T03:18:46;101831.63;;;2.47;89.74
16978;BME280;8605;52.548;4.918;2024-03-08T03:21:14;101824.78;;;2.43;89.18
16978;BME280;8605;52.548;4.918;2024-03-08T03:23:43;101796.47;;;2.26;89.85
16978;BME280;8605;52.548;4.918;2024-03-08T03:26:11;101819.53;;;2.41;89.14
16978;BME280;8605;52.548;4.918;2024-03-08T03:28:40;101824.00;;;2.41;89.15
16978;BME280;8605;52.548;4.918;2024-03-08T03:31:09;101819.72;;;2.38;89.60
16978;BME280;8605;52.548;4.918;2024-03-08T03:33:40;101817.16;;;2.37;89.67
16978;BME280;8605;52.548;4.918;2024-03-08T03:36:08;101811.84;;;2.37;89.78
16978;BME280;8605;52.548;4.918;2024-03-08T03:38:37;101806.00;;;2.30;90.07
16978;BME280;8605;52.548;4.918;2024-03-08T03:41:04;101801.47;;;2.32;89.76
16978;BME280;8605;52.548;4.918;2024-03-08T03:43:36;101797.25;;;2.28;89.97
16978;BME280;8605;52.548;4.918;2024-03-08T03:46:07;101791.25;;;2.25;89.73
16978;BME280;8605;52.548;4.918;2024-03-08T03:48:37;101802.72;;;2.25;90.01
16978;BME280;8605;52.548;4.918;2024-03-08T03:51:05;101801.69;;;2.28;89.40
16978;BME280;8605;52.548;4.918;2024-03-08T03:53:33;101788.75;;;2.22;90.15
16978;BME280;8605;52.548;4.918;2024-03-08T03:56:01;101794.91;;;2.22;89.88
16978;BME280;8605;52.548;4.918;2024-03-08T03:58:33;101792.09;;;2.25;89.81
16978;BME280;8605;52.548;4.918;2024-03-08T04:01:01;101792.31;;;2.21;89.98
16978;BME280;8605;52.548;4.918;2024-03-08T04:03:30;101790.53;;;2.21;89.52
16978;BME280;8605;52.548;4.918;2024-03-08T04:05:57;101792.19;;;2.24;89.55
16978;BME280;8605;52.548;4.918;2024-03-08T04:08:25;101796.88;;;2.19;89.38
16978;BME280;8605;52.548;4.918;2024-03-08T04:10:53;101789.53;;;2.24;89.49
16978;BME280;8605;52.548;4.918;2024-03-08T04:13:21;101798.59;;;2.20;89.46
16978;BME280;8605;52.548;4.918;2024-03-08T04:15:48;101787.97;;;2.20;89.56
16978;BME280;8605;52.548;4.918;2024-03-08T04:18:16;101785.56;;;2.15;89.82
16978;BME280;8605;52.548;4.918;2024-03-08T04:20:46;101780.34;;;2.14;89.13
16978;BME280;8605;52.548;4.918;2024-03-08T04:23:14;101783.06;;;2.12;89.62
16978;BME280;8605;52.548;4.918;2024-03-08T04:25:42;101776.19;;;2.08;89.91
16978;BME280;8605;52.548;4.918;2024-03-08T04:28:10;101778.78;;;2.10;89.68
16978;BME280;8605;52.548;4.918;2024-03-08T04:30:39;101779.88;;;2.06;89.50
16978;BME280;8605;52.548;4.918;2024-03-08T04:33:07;101772.00;;;2.04;89.72
16978;BME280;8605;52.548;4.918;2024-03-08T04:35:35;101769.47;;;2.01;89.66
16978;BME280;8605;52.548;4.918;2024-03-08T04:38:04;101761.53;;;2.01;89.78
16978;BME280;8605;52.548;4.918;2024-03-08T04:40:32;101768.66;;;2.00;89.77
16978;BME280;8605;52.548;4.918;2024-03-08T04:43:00;101773.16;;;1.98;89.98
16978;BME280;8605;52.548;4.918;2024-03-08T04:45:28;101774.09;;;1.97;90.03
16978;BME280;8605;52.548;4.918;2024-03-08T04:47:56;101764.34;;;1.98;89.59
16978;BME280;8605;52.548;4.918;2024-03-08T04:50:24;101773.31;;;1.95;89.67
16978;BME280;8605;52.548;4.918;2024-03-08T04:52:55;101766.47;;;1.91;89.87
16978;BME280;8605;52.548;4.918;2024-03-08T04:55:25;101767.31;;;1.92;89.88
16978;BME280;8605;52.548;4.918;2024-03-08T04:57:53;101775.44;;;1.89;89.68
16978;BME280;8605;52.548;4.918;2024-03-08T05:00:42;101750.41;;;1.77;89.91
16978;BME280;8605;52.548;4.918;2024-03-08T05:03:10;101774.03;;;1.82;90.21
16978;BME280;8605;52.548;4.918;2024-03-08T05:05:38;101769.69;;;1.81;90.56
16978;BME280;8605;52.548;4.918;2024-03-08T05:08:06;101764.44;;;1.79;90.55
16978;BME280;8605;52.548;4.918;2024-03-08T05:10:35;101758.34;;;1.77;90.85
16978;BME280;8605;52.548;4.918;2024-03-08T05:13:03;101760.22;;;1.75;90.78
16978;BME280;8605;52.548;4.918;2024-03-08T05:15:30;101749.59;;;1.75;90.91
16978;BME280;8605;52.548;4.918;2024-03-08T05:18:01;101754.91;;;1.75;90.80
16978;BME280;8605;52.548;4.918;2024-03-08T05:20:29;101751.44;;;1.75;90.93
16978;BME280;8605;52.548;4.918;2024-03-08T05:22:57;101748.00;;;1.73;90.95
16978;BME280;8605;52.548;4.918;2024-03-08T05:25:26;101741.81;;;1.72;91.10
16978;BME280;8605;52.548;4.918;2024-03-08T05:27:55;101742.81;;;1.70;90.70
16978;BME280;8605;52.548;4.918;2024-03-08T05:30:24;101747.13;;;1.72;90.91
16978;BME280;8605;52.548;4.918;2024-03-08T05:32:52;101739.31;;;1.69;90.89
16978;BME280;8605;52.548;4.918;2024-03-08T05:35:20;101739.50;;;1.66;91.05
16978;BME280;8605;52.548;4.918;2024-03-08T05:37:47;101733.47;;;1.63;91.29
16978;BME280;8605;52.548;4.918;2024-03-08T05:40:15;101737.16;;;1.60;91.31
16978;BME280;8605;52.548;4.918;2024-03-08T05:42:46;101732.78;;;1.59;91.43
16978;BME280;8605;52.548;4.918;2024-03-08T05:45:16;101733.66;;;1.59;91.13
16978;BME280;8605;52.548;4.918;2024-03-08T05:47:43;101743.31;;;1.60;91.41
16978;BME280;8605;52.548;4.918;2024-03-08T05:50:11;101743.38;;;1.59;91.22
16978;BME280;8605;52.548;4.918;2024-03-08T05:52:39;101734.56;;;1.58;91.26
16978;BME280;8605;52.548;4.918;2024-03-08T05:55:07;101737.22;;;1.58;91.09
16978;BME280;8605;52.548;4.918;2024-03-08T05:57:36;101734.56;;;1.58;91.25
16978;BME280;8605;52.548;4.918;2024-03-08T06:00:07;101733.88;;;1.55;91.19
16978;BME280;8605;52.548;4.918;2024-03-08T06:02:39;101729.50;;;1.54;91.25
16978;BME280;8605;52.548;4.918;2024-03-08T06:05:09;101726.88;;;1.54;91.43
16978;BME280;8605;52.548;4.918;2024-03-08T06:07:37;101718.97;;;1.52;91.27
16978;BME280;8605;52.548;4.918;2024-03-08T06:10:08;101727.78;;;1.53;91.71
16978;BME280;8605;52.548;4.918;2024-03-08T06:12:37;101720.78;;;1.52;91.60
16978;BME280;8605;52.548;4.918;2024-03-08T06:15:08;101716.31;;;1.52;91.70
16978;BME280;8605;52.548;4.918;2024-03-08T06:17:38;101724.28;;;1.52;91.80
16978;BME280;8605;52.548;4.918;2024-03-08T06:20:07;101723.19;;;1.56;91.70
16978;BME280;8605;52.548;4.918;2024-03-08T06:22:37;101724.03;;;1.57;91.64
16978;BME280;8605;52.548;4.918;2024-03-08T06:25:07;101720.44;;;1.58;91.57
16978;BME280;8605;52.548;4.918;2024-03-08T06:27:36;101702.38;;;1.49;91.41
16978;BME280;8605;52.548;4.918;2024-03-08T06:30:05;101716.88;;;1.59;91.28
16978;BME280;8605;52.548;4.918;2024-03-08T06:32:33;101718.59;;;1.60;91.25
16978;BME280;8605;52.548;4.918;2024-03-08T06:35:04;101717.72;;;1.59;91.26
16978;BME280;8605;52.548;4.918;2024-03-08T06:37:32;101712.44;;;1.59;91.30
16978;BME280;8605;52.548;4.918;2024-03-08T06:40:01;101716.72;;;1.62;91.03
16978;BME280;8605;52.548;4.918;2024-03-08T06:42:29;101719.28;;;1.64;90.79
16978;BME280;8605;52.548;4.918;2024-03-08T06:45:00;101712.09;;;1.66;91.12
16978;BME280;8605;52.548;4.918;2024-03-08T06:47:31;101707.66;;;1.66;90.48
16978;BME280;8605;52.548;4.918;2024-03-08T06:50:00;101709.00;;;1.75;90.05
16978;BME280;8605;52.548;4.918;2024-03-08T06:52:29;101708.81;;;1.78;90.09
16978;BME280;8605;52.548;4.918;2024-03-08T06:54:57;101706.00;;;1.81;90.02
16978;BME280;8605;52.548;4.918;2024-03-08T06:57:25;101707.56;;;1.85;89.63
16978;BME280;8605;52.548;4.918;2024-03-08T06:59:53;101705.59;;;1.88;89.95
16978;BME280;8605;52.548;4.918;2024-03-08T07:02:21;101703.56;;;1.93;89.22
16978;BME280;8605;52.548;4.918;2024-03-08T07:04:51;101706.03;;;1.96;88.84
16978;BME280;8605;52.548;4.918;2024-03-08T07:07:19;101703.25;;;1.99;89.22
16978;BME280;8605;52.548;4.918;2024-03-08T07:09:49;101704.09;;;2.00;89.20
16978;BME280;8605;52.548;4.918;2024-03-08T07:12:19;101705.63;;;2.04;89.66
16978;BME280;8605;52.548;4.918;2024-03-08T07:14:49;101699.22;;;2.08;89.66
16978;BME280;8605;52.548;4.918;2024-03-08T07:17:17;101700.59;;;2.15;89.32
16978;BME280;8605;52.548;4.918;2024-03-08T07:19:45;101699.50;;;2.19;89.66
16978;BME280;8605;52.548;4.918;2024-03-08T07:22:16;101712.53;;;2.24;89.50
16978;BME280;8605;52.548;4.918;2024-03-08T07:24:44;101699.00;;;2.28;89.52
16978;BME280;8605;52.548;4.918;2024-03-08T07:27:32;101708.41;;;2.34;89.01
16978;BME280;8605;52.548;4.918;2024-03-08T07:30:00;101697.47;;;2.40;88.39
16978;BME280;8605;52.548;4.918;2024-03-08T07:32:31;101691.22;;;2.41;88.59
16978;BME280;8605;52.548;4.918;2024-03-08T07:35:01;101699.03;;;2.44;87.65
16978;BME280;8605;52.548;4.918;2024-03-08T07:37:30;101697.91;;;2.48;87.96
16978;BME280;8605;52.548;4.918;2024-03-08T07:39:58;101687.88;;;2.53;88.08
16978;BME280;8605;52.548;4.918;2024-03-08T07:42:26;101685.84;;;2.58;87.17
16978;BME280;8605;52.548;4.918;2024-03-08T07:44:56;101681.13;;;2.63;87.71
16978;BME280;8605;52.548;4.918;2024-03-08T07:47:24;101687.09;;;2.67;87.39
16978;BME280;8605;52.548;4.918;2024-03-08T07:49:53;101675.44;;;2.69;87.42
16978;BME280;8605;52.548;4.918;2024-03-08T07:52:20;101668.25;;;2.71;87.13
16978;BME280;8605;52.548;4.918;2024-03-08T07:54:48;101666.19;;;2.76;86.50
16978;BME280;8605;52.548;4.918;2024-03-08T07:57:16;101670.28;;;2.82;86.89
16978;BME280;8605;52.548;4.918;2024-03-08T07:59:44;101661.31;;;2.85;85.98
16978;BME280;8605;52.548;4.918;2024-03-08T08:02:13;101653.84;;;2.91;86.65
16978;BME280;8605;52.548;4.918;2024-03-08T08:04:41;101658.53;;;2.86;86.53
16978;BME280;8605;52.548;4.918;2024-03-08T08:07:11;101654.69;;;2.92;86.24
16978;BME280;8605;52.548;4.918;2024-03-08T08:09:39;101661.25;;;3.00;86.02
16978;BME280;8605;52.548;4.918;2024-03-08T08:12:08;101655.84;;;3.02;85.37
16978;BME280;8605;52.548;4.918;2024-03-08T08:14:38;101656.34;;;3.08;86.43
16978;BME280;8605;52.548;4.918;2024-03-08T08:17:07;101648.09;;;3.13;86.13
16978;BME280;8605;52.548;4.918;2024-03-08T08:19:37;101641.84;;;3.14;85.40
16978;BME280;8605;52.548;4.918;2024-03-08T08:22:05;101638.69;;;3.07;85.27
16978;BME280;8605;52.548;4.918;2024-03-08T08:24:35;101641.25;;;3.09;84.73
16978;BME280;8605;52.548;4.918;2024-03-08T08:27:04;101638.31;;;3.13;85.15
16978;BME280;8605;52.548;4.918;2024-03-08T08:29:32;101635.22;;;3.21;84.89
16978;BME280;8605;52.548;4.918;2024-03-08T08:32:00;101633.22;;;3.25;84.73
16978;BME280;8605;52.548;4.918;2024-03-08T08:34:29;101634.47;;;3.33;85.09
16978;BME280;8605;52.548;4.918;2024-03-08T08:36:59;101638.16;;;3.31;84.82
16978;BME280;8605;52.548;4.918;2024-03-08T08:39:27;101634.31;;;3.36;84.12
16978;BME280;8605;52.548;4.918;2024-03-08T08:41:55;101635.66;;;3.43;84.53
16978;BME280;8605;52.548;4.918;2024-03-08T08:44:23;101626.91;;;3.41;84.43
16978;BME280;8605;52.548;4.918;2024-03-08T08:46:51;101629.00;;;3.36;83.60
16978;BME280;8605;52.548;4.918;2024-03-08T08:49:28;101639.25;;;3.42;84.06
16978;BME280;8605;52.548;4.918;2024-03-08T08:51:58;101624.91;;;3.45;84.04
16978;BME280;8605;52.548;4.918;2024-03-08T08:54:37;101621.38;;;3.44;83.54
16978;BME280;8605;52.548;4.918;2024-03-08T08:57:05;101618.63;;;3.46;83.21
16978;BME280;8605;52.548;4.918;2024-03-08T08:59:34;101620.19;;;3.50;83.62
16978;BME280;8605;52.548;4.918;2024-03-08T09:02:02;101614.56;;;3.54;83.04
16978;BME280;8605;52.548;4.918;2024-03-08T09:04:30;101604.03;;;3.67;83.91
16978;BME280;8605;52.548;4.918;2024-03-08T09:07:00;101606.09;;;3.76;83.67
16978;BME280;8605;52.548;4.918;2024-03-08T09:09:28;101594.50;;;3.63;82.87
16978;BME280;8605;52.548;4.918;2024-03-08T09:11:56;101600.22;;;3.71;82.86
16978;BME280;8605;52.548;4.918;2024-03-08T09:14:24;101587.59;;;3.75;83.26
16978;BME280;8605;52.548;4.918;2024-03-08T09:16:52;101590.13;;;3.76;82.73
16978;BME280;8605;52.548;4.918;2024-03-08T09:19:20;101583.38;;;3.85;83.61
16978;BME280;8605;52.548;4.918;2024-03-08T09:21:49;101591.28;;;3.86;83.03
16978;BME280;8605;52.548;4.918;2024-03-08T09:24:19;101577.88;;;3.88;82.89
16978;BME280;8605;52.548;4.918;2024-03-08T09:26:47;101581.09;;;3.93;82.16
16978;BME280;8605;52.548;4.918;2024-03-08T09:29:14;101564.53;;;4.02;81.81
16978;BME280;8605;52.548;4.918;2024-03-08T09:31:42;101563.56;;;4.03;82.84
16978;BME280;8605;52.548;4.918;2024-03-08T09:34:12;101563.09;;;4.11;82.65
16978;BME280;8605;52.548;4.918;2024-03-08T09:37:03;101563.06;;;4.25;82.49
16978;BME280;8605;52.548;4.918;2024-03-08T09:39:32;101556.50;;;4.16;82.22
16978;BME280;8605;52.548;4.918;2024-03-08T09:42:00;101554.84;;;4.28;82.19
16978;BME280;8605;52.548;4.918;2024-03-08T09:44:28;101549.34;;;4.31;81.90
16978;BME280;8605;52.548;4.918;2024-03-08T09:46:57;101533.66;;;4.26;82.08
16978;BME280;8605;52.548;4.918;2024-03-08T09:49:25;101534.22;;;4.31;82.42
16978;BME280;8605;52.548;4.918;2024-03-08T09:51:53;101530.69;;;4.31;81.40
16978;BME280;8605;52.548;4.918;2024-03-08T09:54:22;101530.41;;;4.48;82.51
16978;BME280;8605;52.548;4.918;2024-03-08T09:56:52;101524.59;;;4.56;82.09
16978;BME280;8605;52.548;4.918;2024-03-08T09:59:20;101528.00;;;4.58;82.00
16978;BME280;8605;52.548;4.918;2024-03-08T10:02:14;101513.09;;;4.68;82.29
16978;BME280;8605;52.548;4.918;2024-03-08T10:04:43;101524.16;;;4.62;81.86
16978;BME280;8605;52.548;4.918;2024-03-08T10:07:13;101515.56;;;4.71;80.41
16978;BME280;8605;52.548;4.918;2024-03-08T10:09:41;101515.34;;;4.74;81.31
16978;BME280;8605;52.548;4.918;2024-03-08T10:12:15;101505.66;;;4.73;80.34
16978;BME280;8605;52.548;4.918;2024-03-08T10:14:43;101510.69;;;4.77;80.62
16978;BME280;8605;52.548;4.918;2024-03-08T10:17:11;101500.66;;;4.81;80.64
16978;BME280;8605;52.548;4.918;2024-03-08T10:19:49;101503.13;;;4.84;80.22
16978;BME280;8605;52.548;4.918;2024-03-08T10:22:17;101504.59;;;4.88;80.33
16978;BME280;8605;52.548;4.918;2024-03-08T10:24:46;101487.66;;;5.02;80.09
16978;BME280;8605;52.548;4.918;2024-03-08T10:27:16;101485.22;;;4.99;80.21
16978;BME280;8605;52.548;4.918;2024-03-08T10:29:47;101480.19;;;5.07;81.12
16978;BME280;8605;52.548;4.918;2024-03-08T10:32:18;101481.69;;;5.11;80.52
16978;BME280;8605;52.548;4.918;2024-03-08T10:34:47;101473.03;;;5.20;80.95
16978;BME280;8605;52.548;4.918;2024-03-08T10:37:21;101472.59;;;5.13;80.50
16978;BME280;8605;52.548;4.918;2024-03-08T10:39:59;101473.38;;;5.15;80.42
16978;BME280;8605;52.548;4.918;2024-03-08T10:42:40;101461.31;;;5.22;80.86
16978;BME280;8605;52.548;4.918;2024-03-08T10:45:14;101463.09;;;5.35;79.83
16978;BME280;8605;52.548;4.918;2024-03-08T10:47:46;101458.94;;;5.43;79.96
16978;BME280;8605;52.548;4.918;2024-03-08T10:50:18;101441.22;;;5.42;80.82
16978;BME280;8605;52.548;4.918;2024-03-08T10:52:49;101455.00;;;5.36;80.61
16978;BME280;8605;52.548;4.918;2024-03-08T10:55:40;101441.31;;;5.41;79.23
16978;BME280;8605;52.548;4.918;2024-03-08T10:58:10;101426.06;;;5.43;79.90
16978;BME280;8605;52.548;4.918;2024-03-08T11:00:38;101426.63;;;5.59;78.79
16978;BME280;8605;52.548;4.918;2024-03-08T11:03:46;101430.84;;;5.50;79.13
16978;BME280;8605;52.548;4.918;2024-03-08T11:06:17;101421.28;;;5.59;79.36
16978;BME280;8605;52.548;4.918;2024-03-08T11:08:48;101421.75;;;5.53;79.70
16978;BME280;8605;52.548;4.918;2024-03-08T11:11:24;101415.94;;;5.59;79.53
16978;BME280;8605;52.548;4.918;2024-03-08T11:14:02;101409.66;;;5.60;79.99
16978;BME280;8605;52.548;4.918;2024-03-08T11:16:38;101408.75;;;5.72;80.44
16978;BME280;8605;52.548;4.918;2024-03-08T11:19:26;101403.09;;;5.77;79.16
16978;BME280;8605;52.548;4.918;2024-03-08T11:21:59;101406.84;;;5.74;79.82
16978;BME280;8605;52.548;4.918;2024-03-08T11:24:27;101400.53;;;5.75;79.18
16978;BME280;8605;52.548;4.918;2024-03-08T11:26:57;101397.75;;;5.77;79.22
16978;BME280;8605;52.548;4.918;2024-03-08T11:29:37;101386.19;;;5.89;79.81
16978;BME280;8605;52.548;4.918;2024-03-08T11:32:11;101384.53;;;5.99;79.77
16978;BME280;8605;52.548;4.918;2024-03-08T11:34:41;101374.19;;;5.94;79.55
16978;BME280;8605;52.548;4.918;2024-03-08T11:37:12;101379.03;;;5.89;79.32
16978;BME280;8605;52.548;4.918;2024-03-08T11:39:46;101370.03;;;5.90;79.51
16978;BME280;8605;52.548;4.918;2024-03-08T11:42:15;101366.66;;;5.88;79.82
16978;BME280;8605;52.548;4.918;2024-03-08T11:44:45;101337.03;;;5.91;79.77
16978;BME280;8605;52.548;4.918;2024-03-08T11:47:15;101361.44;;;5.98;80.61
16978;BME280;8605;52.548;4.918;2024-03-08T11:49:43;101355.25;;;5.97;80.70
16978;BME280;8605;52.548;4.918;2024-03-08T11:52:12;101351.41;;;6.01;81.13
16978;BME280;8605;52.548;4.918;2024-03-08T11:54:41;101336.44;;;5.99;81.67
16978;BME280;8605;52.548;4.918;2024-03-08T11:57:09;101321.50;;;5.96;81.58
16978;BME280;8605;52.548;4.918;2024-03-08T11:59:37;101318.25;;;6.04;81.51
16978;BME280;8605;52.548;4.918;2024-03-08T12:02:06;101324.34;;;6.17;81.64
16978;BME280;8605;52.548;4.918;2024-03-08T12:04:37;101315.97;;;6.11;81.08
16978;BME280;8605;52.548;4.918;2024-03-08T12:07:05;101312.69;;;6.07;81.28
16978;BME280;8605;52.548;4.918;2024-03-08T12:09:36;101305.53;;;6.19;81.25
16978;BME280;8605;52.548;4.918;2024-03-08T12:12:06;101303.84;;;6.18;81.92
16978;BME280;8605;52.548;4.918;2024-03-08T12:14:35;101289.66;;;6.28;81.76
16978;BME280;8605;52.548;4.918;2024-03-08T12:17:04;101286.13;;;6.28;82.11
16978;BME280;8605;52.548;4.918;2024-03-08T12:19:33;101277.25;;;6.27;81.98
16978;BME280;8605;52.548;4.918;2024-03-08T12:22:08;101275.56;;;6.15;81.12
16978;BME280;8605;52.548;4.918;2024-03-08T12:24:36;101256.22;;;6.23;81.32
16978;BME280;8605;52.548;4.918;2024-03-08T12:27:17;101252.00;;;6.31;81.46
16978;BME280;8605;52.548;4.918;2024-03-08T12:29:45;101254.06;;;6.39;81.34
16978;BME280;8605;52.548;4.918;2024-03-08T12:32:13;101256.50;;;6.53;81.18
16978;BME280;8605;52.548;4.918;2024-03-08T12:34:42;101228.09;;;6.41;81.16
16978;BME280;8605;52.548;4.918;2024-03-08T12:37:12;101237.91;;;6.52;81.17
16978;BME280;8605;52.548;4.918;2024-03-08T12:39:40;101227.47;;;6.37;80.65
16978;BME280;8605;52.548;4.918;2024-03-08T12:42:12;101223.22;;;6.46;81.07
16978;BME280;8605;52.548;4.918;2024-03-08T12:44:42;101225.41;;;6.41;80.52
16978;BME280;8605;52.548;4.918;2024-03-08T12:47:10;101218.22;;;6.53;80.69
16978;BME280;8605;52.548;4.918;2024-03-08T12:49:38;101212.28;;;6.60;80.50
16978;BME280;8605;52.548;4.918;2024-03-08T12:52:09;101216.41;;;6.53;80.25
16978;BME280;8605;52.548;4.918;2024-03-08T12:54:38;101216.50;;;6.63;81.06
16978;BME280;8605;52.548;4.918;2024-03-08T12:57:06;101209.56;;;6.71;80.60
16978;BME280;8605;52.548;4.918;2024-03-08T12:59:34;101203.75;;;6.66;79.96
16978;BME280;8605;52.548;4.918;2024-03-08T13:02:02;101201.56;;;6.71;80.71
16978;BME280;8605;52.548;4.918;2024-03-08T13:04:30;101206.28;;;6.68;80.52
16978;BME280;8605;52.548;4.918;2024-03-08T13:06:58;101202.13;;;6.75;80.54
16978;BME280;8605;52.548;4.918;2024-03-08T13:09:29;101192.28;;;6.75;79.81
16978;BME280;8605;52.548;4.918;2024-03-08T13:11:58;101177.94;;;6.76;80.39
16978;BME280;8605;52.548;4.918;2024-03-08T13:14:27;101177.63;;;7.02;79.74
16978;BME280;8605;52.548;4.918;2024-03-08T13:16:58;101186.28;;;6.94;80.78
16978;BME280;8605;52.548;4.918;2024-03-08T13:19:26;101164.88;;;6.94;80.57
16978;BME280;8605;52.548;4.918;2024-03-08T13:21:54;101176.09;;;6.99;80.42